Latest Coastal Weather Observations for Port Lincoln Airport

IDS60701

Issued at 3:11 am CST Friday 1 July 2016 (issued every 10 minutes, with the page automatically refreshed every 10 minutes)

About coastal observations | Map of coastal stations | Coastal observations for SA | Marine services | Other Formats
Station Details ID: 018192 Name: PORT LINCOLN AWS Lat: -34.60 Lon: 135.88 Height: 8.5 m
Data from the previous 72 hours. | See also: Recent months at Port Lincoln Airport
Date/Time
CST
Temp
°C
Wind Pressure Rain since
9am
mm
Weather Cloud Vis
km
Sea
Height
m
Swell
Dir  Spd
kts
Gust
kts
hPa Trend Height
m
Period
s
Dir
01/03:00am 10.0 WNW 7 9 1023.4 - 0.2 - Partly cloudy 10 - - - -
01/02:30am 10.4 WNW 8 9 1023.1 - 0.2 - Cloudy 10 - - - -
01/02:00am 9.3 W 7 9 1023.1 - 0.2 - Partly cloudy 10 - - - -
01/01:30am 8.9 WNW 8 9 1023.1 - 0.2 - Partly cloudy 10 - - - -
01/01:00am 10.5 WNW 9 12 1023.1 - 0.2 - Cloudy 10 - - - -
01/12:30am 9.5 W 8 11 1023.4 - 0.2 - Partly cloudy 10 - - - -
01/12:00am 9.2 W 8 9 1023.2 - 0.2 - Cloudy 10 - - - -
 
Date/Time
CST
Temp
°C
Wind Pressure Rain since
9am
mm
Weather Cloud Vis
km
Sea
Height
m
Swell
Dir  Spd
kts
Gust
kts
hPa Trend Height
m
Period
s
Dir
30/11:30pm 10.2 W 12 15 1023.1 - 0.2 - Partly cloudy 10 - - - -
30/11:00pm 8.2 W 7 8 1022.7 - 0.2 - Partly cloudy 10 - - - -
30/10:30pm 9.3 W 9 10 1022.2 - 0.2 - Partly cloudy 10 - - - -
30/10:00pm 9.0 WNW 8 10 1021.9 - 0.2 - Partly cloudy 10 - - - -
30/09:30pm 9.6 WNW 6 9 1021.9 - 0.2 - Partly cloudy 10 - - - -
30/09:00pm 9.8 WSW 9 13 1022.1 - 0.2 - Cloudy 7 - - - -
30/08:30pm 10.1 W 8 9 1021.4 - 0.2 - Partly cloudy 10 - - - -
30/08:00pm 10.4 W 9 11 1021.0 - 0.2 - Partly cloudy 10 - - - -
30/07:30pm 9.0 WNW 7 9 1020.7 - 0.2 - Partly cloudy 10 - - - -
30/07:00pm 10.3 WSW 8 10 1020.4 - 0.2 - Partly cloudy 10 - - - -
30/06:30pm 9.1 SW 4 7 1020.0 - 0.2 - Partly cloudy 10 - - - -
30/06:00pm 9.8 W 10 13 1019.5 - 0.2 - Partly cloudy 10 - - - -
30/05:30pm 9.8 WSW 9 11 1019.1 - 0.2 - Partly cloudy 10 - - - -
30/05:00pm 11.0 W 11 14 1018.7 - 0.2 - Partly cloudy 10 - - - -
30/04:30pm 11.3 W 13 15 1018.4 - 0.2 - Partly cloudy 10 - - - -
30/04:09pm 12.8 SW 15 23 1018.3 - 0.2 - Partly cloudy 10 - - - -
30/04:00pm 12.8 SW 8 11 1018.1 - 0.2 - Partly cloudy 10 - - - -
30/03:30pm 12.5 WSW 12 16 1017.6 - 0.2 - Partly cloudy 10 - - - -
30/03:00pm 12.7 SW 14 22 1017.3 - 0.2 - Cloudy 10 - - - -
30/02:30pm 13.1 SW 16 23 1016.8 - 0.2 - Partly cloudy 10 - - - -
30/02:00pm 12.7 SW 16 24 1016.8 - 0.2 - Partly cloudy 10 - - - -
30/01:35pm 14.3 SW 18 28 1016.5 - 0.2 - Partly cloudy 10 - - - -
30/01:30pm 14.0 SW 21 28 1016.5 - 0.2 - Partly cloudy 10 - - - -
30/01:02pm 13.4 WSW 16 26 1016.3 - 0.2 - Partly cloudy 10 - - - -
30/01:00pm 13.9 WSW 16 25 1016.4 - 0.2 - Partly cloudy 10 - - - -
30/12:30pm 13.7 SW 21 31 1016.3 - 0.2 - Partly cloudy 10 - - - -
30/12:24pm 14.0 WSW 20 31 1016.2 - 0.2 - Partly cloudy 10 - - - -
30/12:00pm 13.3 WSW 19 26 1016.4 - 0.2 - Cloudy 10 - - - -
30/11:35am 14.2 SW 18 28 1016.5 - 0.2 - Partly cloudy 10 - - - -
30/11:30am 14.1 SW 19 28 1016.4 - 0.2 - Partly cloudy 10 - - - -
30/11:10am 14.3 WSW 19 29 1016.1 - 0.2 - Partly cloudy 10 - - - -
30/11:00am 13.5 WSW 18 25 1016.0 - 0.2 - Partly cloudy 10 - - - -
30/10:38am 13.5 WSW 18 29 1015.7 - 0.2 - Partly cloudy 10 - - - -
30/10:30am 13.6 WSW 17 25 1015.6 - 0.2 - Partly cloudy 10 - - - -
30/10:00am 12.7 WSW 14 17 1015.3 - 0.2 - Partly cloudy 10 - - - -
30/09:54am 12.4 WSW 15 20 1015.2 - 0.2 - Partly cloudy 10 - - - -
30/09:38am 11.9 WSW 19 29 1015.2 - 0.2 - Partly cloudy 5 - - - -
30/09:34am 12.7 WSW 17 29 1015.0 - 0.2 - Partly cloudy 10 - - - -
30/09:30am 12.7 WSW 16 22 1014.7 - 0.0 - Partly cloudy 10 - - - -
30/09:17am 12.7 WSW 16 23 1014.5 - 0.0 - Partly cloudy 10 - - - -
30/09:00am 12.4 WSW 19 30 1014.3 - 4.2 Rain Partly cloudy 4 - - - -
30/08:58am 12.7 WSW 18 29 1014.3 - 4.0 - Partly cloudy 5 - - - -
30/08:30am 12.9 WSW 17 22 1013.6 - 3.8 - Partly cloudy 10 - - - -
30/08:00am 12.4 W 15 19 1013.1 - 3.8 - Partly cloudy 10 - - - -
30/07:55am 12.2 W 15 20 1013.2 - 3.8 - Partly cloudy 10 - - - -
30/07:44am 12.4 W 17 23 1013.2 - 3.8 - Partly cloudy 5 - - - -
30/07:30am 12.2 W 14 20 1012.9 - 3.6 - Partly cloudy 10 - - - -
30/07:12am 12.0 W 18 28 1012.7 - 3.2 - Partly cloudy 10 - - - -
30/07:01am 12.0 W 24 34 1012.5 - 3.2 - Partly cloudy 5 - - - -
30/07:00am 12.2 W 25 34 1012.5 - 3.2 - Partly cloudy 5 - - - -
30/06:58am 12.2 W 23 34 1012.5 - 3.2 - Partly cloudy 5 - - - -
30/06:52am 12.7 WNW 16 33 1012.1 - 3.2 - Partly cloudy 10 - - - -
30/06:30am 12.9 WNW 13 17 1011.6 - 3.0 - Partly cloudy 10 - - - -
30/06:00am 12.9 W 12 16 1011.4 - 3.0 - Partly cloudy 10 - - - -
30/05:30am 12.4 W 13 16 1011.2 - 3.0 - - 10 - - - -
30/05:00am 12.8 W 15 21 1011.1 - 3.0 - - 10 - - - -
30/04:30am 13.0 W 14 19 1011.1 - 3.0 - - 10 - - - -
30/04:00am 13.2 WNW 15 20 1011.2 - 3.0 - Partly cloudy 10 - - - -
30/03:35am 13.5 WNW 15 23 1011.0 - 3.0 - Partly cloudy 10 - - - -
30/03:30am 13.4 WNW 17 24 1011.0 - 3.0 - Partly cloudy 10 - - - -
30/03:21am 13.8 WNW 14 23 1011.1 - 3.0 - Partly cloudy 5 - - - -
30/03:00am 13.7 WNW 11 16 1011.0 - 2.6 Recent precip. - 10 - - - -
30/02:30am 13.5 WNW 11 16 1011.2 - 2.6 - Partly cloudy 10 - - - -
30/02:00am 13.7 NW 10 14 1011.4 - 2.4 - Partly cloudy 10 - - - -
30/01:30am 13.5 WNW 14 22 1011.2 - 2.4 - Partly cloudy 10 - - - -
30/01:00am 11.5 NNW 9 13 1011.4 - 2.2 - Partly cloudy 10 - - - -
30/12:30am 11.1 NNW 13 17 1011.8 - 2.2 - Partly cloudy 10 - - - -
30/12:05am 11.4 NW 15 21 1012.2 - 2.2 - Partly cloudy 10 - - - -
30/12:00am 11.3 NW 17 23 1012.2 - 2.2 Recent precip. Cloudy 10 - - - -
 
Date/Time
CST
Temp
°C
Wind Pressure Rain since
9am
mm
Weather Cloud Vis
km
Sea
Height
m
Swell
Dir  Spd
kts
Gust
kts
hPa Trend Height
m
Period
s
Dir
29/11:37pm 11.2 NW 18 23 1012.2 - 1.0 - Partly cloudy 5 - - - -
29/11:30pm 11.6 NW 17 21 1012.1 - 0.4 - Partly cloudy 10 - - - -
29/11:00pm 12.9 NW 18 24 1012.1 - 0.2 - Partly cloudy 10 - - - -
29/10:30pm 12.8 NNW 18 25 1011.7 - 0.2 - Cloudy 10 - - - -
29/10:00pm 12.7 NNW 19 25 1011.9 - 0.2 - Partly cloudy 10 - - - -
29/09:30pm 13.2 NNW 15 24 1012.2 - 0.2 - Partly cloudy 10 - - - -
29/09:00pm 13.3 NNW 11 16 1012.6 - 0.2 - Mostly cloudy 10 - - - -
29/08:30pm 12.4 N 9 14 1012.9 - 0.2 - - 10 - - - -
29/08:00pm 12.7 N 10 13 1013.1 - 0.2 - - 10 - - - -
29/07:30pm 12.0 N 8 11 1013.6 - 0.2 - - 10 - - - -
29/07:00pm 12.1 NNW 8 11 1013.7 - 0.2 - - 10 - - - -
29/06:30pm 12.8 NNW 9 11 1013.9 - 0.2 - - 10 - - - -
29/06:00pm 12.7 N 8 10 1013.9 - 0.2 - - 10 - - - -
29/05:30pm 13.0 NNW 7 9 1013.9 - 0.2 - - 10 - - - -
29/05:00pm 14.6 NNW 9 14 1014.0 - 0.2 - - 10 - - - -
29/04:30pm 15.5 NNW 12 16 1014.0 - 0.2 - Partly cloudy 10 - - - -
29/04:00pm 16.0 NNW 16 27 1014.1 - 0.2 - - 10 - - - -
29/03:53pm 16.1 N 16 27 1014.0 - 0.2 - - 10 - - - -
29/03:30pm 16.1 N 18 25 1013.9 - 0.2 - - 10 - - - -
29/03:00pm 16.2 N 17 23 1014.2 - 0.2 - Mostly clear 10 - - - -
29/02:30pm 16.2 NNW 17 26 1014.6 - 0.2 - Partly cloudy 10 - - - -
29/02:00pm 16.2 N 18 26 1014.9 - 0.2 - Partly cloudy 10 - - - -
29/01:43pm 16.1 N 18 29 1015.1 - 0.2 - - 10 - - - -
29/01:30pm 15.9 N 19 26 1015.3 - 0.2 - - 10 - - - -
29/01:00pm 15.8 N 19 25 1015.8 - 0.2 - - 10 - - - -
29/12:30pm 15.5 N 19 25 1016.8 - 0.0 - - 10 - - - -
29/12:00pm 14.9 N 20 27 1017.5 - 0.0 - - 10 - - - -
29/11:41am 14.6 N 19 29 1018.1 - 0.0 - - 10 - - - -
29/11:30am 14.4 N 22 29 1018.2 - 0.0 - - 10 - - - -
29/11:13am 14.1 N 20 30 1018.4 - 0.0 - - 10 - - - -
29/11:00am 13.9 N 21 30 1018.7 - 0.0 - - 10 - - - -
29/10:30am 13.5 N 19 27 1019.2 - 0.0 - Partly cloudy 10 - - - -
29/10:02am 12.6 N 18 28 1019.8 - 0.0 - Cloudy 10 - - - -
29/10:00am 12.5 N 18 24 1019.8 - 0.0 - Cloudy 10 - - - -
29/09:41am 12.2 N 17 27 1020.1 - 0.0 - Cloudy 10 - - - -
29/09:30am 12.2 N 19 28 1020.2 - 0.0 - Cloudy 10 - - - -
29/09:24am 12.2 N 17 28 1020.3 - 0.0 - Cloudy 10 - - - -
29/09:00am 11.7 N 16 22 1020.5 - 0.0 - Cloudy 10 - - - -
29/08:30am 11.4 N 15 19 1020.6 - 0.0 - Cloudy 10 - - - -
29/08:00am 11.2 N 15 20 1020.6 - 0.0 - Cloudy 10 - - - -
29/07:30am 11.1 N 14 21 1020.7 - 0.0 - Cloudy 10 - - - -
29/07:00am 11.3 N 13 17 1021.0 - 0.0 - Cloudy 10 - - - -
29/06:30am 10.6 N 10 14 1021.0 - 0.0 - Cloudy 10 - - - -
29/06:00am 10.4 N 11 16 1021.1 - 0.0 - Mostly cloudy 10 - - - -
29/05:30am 10.3 N 10 13 1021.2 - 0.0 - Cloudy 10 - - - -
29/05:00am 9.9 N 8 12 1021.4 - 0.0 - Partly cloudy 10 - - - -
29/04:30am 9.6 N 7 9 1021.5 - 0.0 - Partly cloudy 10 - - - -
29/04:00am 8.3 N 4 5 1021.8 - 0.0 - Partly cloudy 10 - - - -
29/03:30am 8.3 NNW 6 8 1022.1 - 0.0 - - 10 - - - -
29/03:00am 6.8 NNW 6 7 1022.6 - 0.0 - - 10 - - - -
29/02:30am 7.9 NW 7 8 1022.6 - 0.0 - - 10 - - - -
29/02:00am 6.6 NNW 7 9 1022.9 - 0.0 - - 10 - - - -
29/01:30am 7.3 NW 7 10 1023.1 - 0.0 - - 10 - - - -
29/01:00am 7.1 NW 7 9 1023.4 - 0.0 - - 10 - - - -
29/12:30am 7.0 NNW 6 8 1023.6 - 0.0 - - 10 - - - -
29/12:00am 6.9 NNW 7 11 1023.8 - 0.0 - - 10 - - - -
 
Date/Time
CST
Temp
°C
Wind Pressure Rain since
9am
mm
Weather Cloud Vis
km
Sea
Height
m
Swell
Dir  Spd
kts
Gust
kts
hPa Trend Height
m
Period
s
Dir
28/11:30pm 7.8 NNW 9 11 1023.9 - 0.0 - - 10 - - - -
28/11:00pm 7.8 NNW 9 11 1024.2 - 0.0 - - 10 - - - -
28/10:30pm 8.3 NNW 11 12 1024.2 - 0.0 - - 10 - - - -
28/10:00pm 8.0 NW 8 10 1024.5 - 0.0 - - 10 - - - -
28/09:30pm 8.0 NNW 7 8 1024.9 - 0.0 - - 10 - - - -
28/09:00pm 6.7 NW 6 8 1024.9 - 0.0 - - 10 - - - -
28/08:30pm 8.1 WNW 7 8 1024.8 - 0.0 - - 10 - - - -
28/08:00pm 7.9 WNW 7 8 1024.7 - 0.0 - - 10 - - - -
28/07:30pm 8.1 WNW 7 7 1024.7 - 0.0 - - 10 - - - -
28/07:00pm 8.0 WNW 5 6 1024.6 - 0.0 - - 10 - - - -
28/06:30pm 8.3 NW 6 7 1024.5 - 0.0 - - 10 - - - -
28/06:00pm 9.7 NNW 5 7 1024.3 - 0.0 - Cloudy 10 - - - -
28/05:30pm 11.4 N 6 6 1024.1 - 0.0 - - 10 - - - -
28/05:00pm 12.2 N 6 7 1024.2 - 0.0 - - 10 - - - -
28/04:30pm 13.9 NW 9 11 1024.3 - 0.0 - - 10 - - - -
28/04:00pm 15.9 NW 11 16 1024.1 - 0.0 - - 10 - - - -
28/03:30pm 16.0 NW 13 18 1024.1 - 0.0 - - 10 - - - -
28/03:00pm 16.0 NW 15 20 1024.2 - 0.0 - - 10 - - - -
28/02:30pm 16.4 NW 15 21 1024.3 - 0.0 - - 10 - - - -
28/02:00pm 16.5 NW 14 20 1024.4 - 0.0 - Partly cloudy 10 - - - -
28/01:30pm 15.5 NW 17 23 1024.7 - 0.0 - - 10 - - - -
28/01:00pm 15.6 NW 18 24 1025.1 - 0.0 - - 10 - - - -
28/12:30pm 15.3 NNW 17 22 1025.5 - 0.0 - Partly cloudy 10 - - - -
28/12:00pm 15.1 NNW 15 21 1026.0 - 0.0 - Cloudy 10 - - - -
28/11:30am 14.6 NNW 14 20 1026.4 - 0.0 - Partly cloudy 10 - - - -
28/11:00am 14.0 NNW 14 19 1026.5 - 0.0 - - 10 - - - -
28/10:30am 13.7 NNW 13 18 1026.5 - 0.0 - - 10 - - - -
28/10:00am 12.8 NNW 13 17 1026.4 - 0.0 - Partly cloudy 10 - - - -
28/09:30am 12.1 NNW 14 19 1026.3 - 0.0 - Cloudy 10 - - - -
28/09:00am 10.9 NNW 15 21 1025.9 - 0.2 - Cloudy 10 - - - -
28/08:30am 10.1 NNW 14 18 1025.6 - 0.2 - - 10 - - - -
28/08:00am 9.2 NNW 16 20 1025.3 - 0.2 - - 10 - - - -
28/07:30am 9.1 NW 14 19 1025.0 - 0.2 - - 10 - - - -
28/07:00am 9.7 NW 15 20 1024.5 - 0.2 - - 10 - - - -
28/06:30am 8.7 NW 8 11 1024.3 - 0.2 - - 10 - - - -
28/06:00am 8.9 NNW 6 8 1024.1 - 0.2 - - 10 - - - -
28/05:30am 9.3 NW 7 9 1024.0 - 0.2 - - 10 - - - -
28/05:00am 8.7 NW 7 9 1023.6 - 0.2 - - 10 - - - -
28/04:30am 8.6 NE 1 5 1023.5 - 0.2 - - 10 - - - -
28/04:00am 8.4 E 3 5 1023.6 - 0.2 - - 10 - - - -
28/03:30am 8.5 NW 5 7 1023.6 - 0.2 - - 10 - - - -

Other Formats:

Comma delimited format used in spreadsheet applications
http://www.bom.gov.au/fwo/IDS60701/IDS60701.95661.axf

JavaScript Object Notation format (JSON) in row-major order
http://www.bom.gov.au/fwo/IDS60701/IDS60701.95661.json